sensor_id;sensor_type;location;lat;lon;timestamp;pressure;altitude;pressure_sealevel;temperature;humidity
50430;BME280;36359;41.556;-8.418;2022-10-12T00:01:21;100501.19;;;18.34;96.94
50430;BME280;36359;41.556;-8.418;2022-10-12T00:03:47;100500.91;;;18.29;96.21
50430;BME280;36359;41.556;-8.418;2022-10-12T00:08:41;100514.63;;;18.08;97.64
50430;BME280;36359;41.556;-8.418;2022-10-12T00:11:11;100517.06;;;18.17;98.41
50430;BME280;36359;41.556;-8.418;2022-10-12T00:13:37;100519.50;;;18.27;98.39
50430;BME280;36359;41.556;-8.418;2022-10-12T00:16:05;100521.69;;;18.17;98.07
50430;BME280;36359;41.556;-8.418;2022-10-12T00:18:32;100531.06;;;18.23;98.20
50430;BME280;36359;41.556;-8.418;2022-10-12T00:21:11;100531.13;;;18.29;96.78
50430;BME280;36359;41.556;-8.418;2022-10-12T00:23:38;100532.56;;;18.25;96.70
50430;BME280;36359;41.556;-8.418;2022-10-12T00:26:16;100528.75;;;18.26;96.64
50430;BME280;36359;41.556;-8.418;2022-10-12T00:28:41;100529.03;;;18.31;96.65
50430;BME280;36359;41.556;-8.418;2022-10-12T00:31:09;100526.81;;;18.20;96.52
50430;BME280;36359;41.556;-8.418;2022-10-12T00:33:35;100523.22;;;18.20;96.84
50430;BME280;36359;41.556;-8.418;2022-10-12T00:36:16;100524.06;;;18.20;97.12
50430;BME280;36359;41.556;-8.418;2022-10-12T00:38:42;100518.56;;;18.20;96.91
50430;BME280;36359;41.556;-8.418;2022-10-12T00:41:08;100512.44;;;18.18;96.78
50430;BME280;36359;41.556;-8.418;2022-10-12T00:43:37;100507.91;;;18.10;96.65
50430;BME280;36359;41.556;-8.418;2022-10-12T00:48:50;100503.53;;;18.16;96.41
50430;BME280;36359;41.556;-8.418;2022-10-12T00:51:18;100518.09;;;18.16;95.02
50430;BME280;36359;41.556;-8.418;2022-10-12T00:53:52;100512.03;;;18.21;94.75
50430;BME280;36359;41.556;-8.418;2022-10-12T00:56:22;100512.50;;;18.03;95.23
50430;BME280;36359;41.556;-8.418;2022-10-12T00:58:49;100510.81;;;17.87;96.58
50430;BME280;36359;41.556;-8.418;2022-10-12T01:01:16;100511.50;;;17.60;97.82
50430;BME280;36359;41.556;-8.418;2022-10-12T01:03:43;100501.56;;;17.59;99.53
50430;BME280;36359;41.556;-8.418;2022-10-12T01:06:09;100505.34;;;17.58;98.81
50430;BME280;36359;41.556;-8.418;2022-10-12T01:08:36;100503.94;;;17.62;98.79
50430;BME280;36359;41.556;-8.418;2022-10-12T01:11:03;100506.16;;;17.88;96.76
50430;BME280;36359;41.556;-8.418;2022-10-12T01:13:29;100500.38;;;17.98;94.47
50430;BME280;36359;41.556;-8.418;2022-10-12T01:18:54;100505.63;;;18.14;94.16
50430;BME280;36359;41.556;-8.418;2022-10-12T01:21:22;100506.13;;;18.03;94.19
50430;BME280;36359;41.556;-8.418;2022-10-12T01:24:15;100505.50;;;18.01;93.57
50430;BME280;36359;41.556;-8.418;2022-10-12T01:30:06;100508.50;;;18.27;93.33
50430;BME280;36359;41.556;-8.418;2022-10-12T01:32:41;100510.47;;;18.33;92.21
50430;BME280;36359;41.556;-8.418;2022-10-12T01:40:38;100514.84;;;18.28;91.90
50430;BME280;36359;41.556;-8.418;2022-10-12T01:43:07;100514.13;;;18.19;92.01
50430;BME280;36359;41.556;-8.418;2022-10-12T01:45:33;100503.47;;;18.09;92.17
50430;BME280;36359;41.556;-8.418;2022-10-12T01:47:59;100504.72;;;18.07;92.12
50430;BME280;36359;41.556;-8.418;2022-10-12T01:50:37;100503.13;;;17.98;92.84
50430;BME280;36359;41.556;-8.418;2022-10-12T01:59:18;100509.16;;;18.08;92.30
50430;BME280;36359;41.556;-8.418;2022-10-12T02:02:35;100504.53;;;17.93;92.82
50430;BME280;36359;41.556;-8.418;2022-10-12T02:05:23;100501.72;;;17.72;96.14
50430;BME280;36359;41.556;-8.418;2022-10-12T02:07:57;100501.94;;;17.85;98.72
50430;BME280;36359;41.556;-8.418;2022-10-12T02:10:29;100508.72;;;17.89;95.68
50430;BME280;36359;41.556;-8.418;2022-10-12T02:13:01;100506.66;;;18.13;97.23
50430;BME280;36359;41.556;-8.418;2022-10-12T02:15:30;100497.75;;;17.75;97.28
50430;BME280;36359;41.556;-8.418;2022-10-12T02:17:58;100498.41;;;17.91;96.72
50430;BME280;36359;41.556;-8.418;2022-10-12T02:20:27;100489.41;;;17.98;96.27
50430;BME280;36359;41.556;-8.418;2022-10-12T02:26:44;100471.72;;;17.70;96.79
50430;BME280;36359;41.556;-8.418;2022-10-12T02:29:15;100473.75;;;17.62;96.79
50430;BME280;36359;41.556;-8.418;2022-10-12T02:32:00;100476.00;;;17.58;96.99
50430;BME280;36359;41.556;-8.418;2022-10-12T02:38:19;100480.19;;;17.54;99.86
50430;BME280;36359;41.556;-8.418;2022-10-12T02:41:08;100468.84;;;17.57;97.39
50430;BME280;36359;41.556;-8.418;2022-10-12T02:44:44;100488.34;;;17.99;98.10
50430;BME280;36359;41.556;-8.418;2022-10-12T02:47:16;100475.78;;;17.89;96.03
50430;BME280;36359;41.556;-8.418;2022-10-12T02:49:46;100479.25;;;17.62;96.64
50430;BME280;36359;41.556;-8.418;2022-10-12T02:52:13;100472.16;;;17.53;97.24
50430;BME280;36359;41.556;-8.418;2022-10-12T02:54:39;100478.00;;;17.49;97.56
50430;BME280;36359;41.556;-8.418;2022-10-12T02:57:05;100471.41;;;17.44;97.70
50430;BME280;36359;41.556;-8.418;2022-10-12T02:59:30;100468.34;;;17.68;97.59
50430;BME280;36359;41.556;-8.418;2022-10-12T03:01:56;100470.09;;;17.40;97.04
50430;BME280;36359;41.556;-8.418;2022-10-12T03:04:22;100457.81;;;17.36;97.37
50430;BME280;36359;41.556;-8.418;2022-10-12T03:06:47;100462.16;;;17.45;97.09
50430;BME280;36359;41.556;-8.418;2022-10-12T03:09:13;100457.16;;;17.34;97.31
50430;BME280;36359;41.556;-8.418;2022-10-12T03:11:39;100460.44;;;17.44;95.39
50430;BME280;36359;41.556;-8.418;2022-10-12T03:14:11;100458.06;;;17.41;94.83
50430;BME280;36359;41.556;-8.418;2022-10-12T03:16:37;100465.00;;;17.37;94.56
50430;BME280;36359;41.556;-8.418;2022-10-12T03:19:03;100463.19;;;17.29;94.43
50430;BME280;36359;41.556;-8.418;2022-10-12T03:21:29;100473.59;;;17.48;93.87
50430;BME280;36359;41.556;-8.418;2022-10-12T03:23:54;100461.84;;;17.55;92.24
50430;BME280;36359;41.556;-8.418;2022-10-12T03:26:20;100470.81;;;17.63;92.46
50430;BME280;36359;41.556;-8.418;2022-10-12T03:28:46;100469.25;;;17.76;90.87
50430;BME280;36359;41.556;-8.418;2022-10-12T03:31:12;100464.94;;;17.81;91.21
50430;BME280;36359;41.556;-8.418;2022-10-12T03:33:37;100464.88;;;17.96;92.34
50430;BME280;36359;41.556;-8.418;2022-10-12T03:36:03;100465.88;;;17.88;90.27
50430;BME280;36359;41.556;-8.418;2022-10-12T03:38:30;100460.41;;;17.74;90.28
50430;BME280;36359;41.556;-8.418;2022-10-12T03:40:55;100467.69;;;17.81;91.81
50430;BME280;36359;41.556;-8.418;2022-10-12T03:43:22;100461.53;;;17.79;91.57
50430;BME280;36359;41.556;-8.418;2022-10-12T03:45:47;100461.00;;;17.90;90.30
50430;BME280;36359;41.556;-8.418;2022-10-12T03:48:14;100470.44;;;18.03;91.14
50430;BME280;36359;41.556;-8.418;2022-10-12T03:50:39;100465.72;;;17.97;90.92
50430;BME280;36359;41.556;-8.418;2022-10-12T03:53:05;100468.34;;;17.83;90.07
50430;BME280;36359;41.556;-8.418;2022-10-12T03:55:32;100466.16;;;17.64;91.22
50430;BME280;36359;41.556;-8.418;2022-10-12T03:57:58;100474.50;;;17.56;91.92
50430;BME280;36359;41.556;-8.418;2022-10-12T04:00:24;100476.41;;;17.40;92.28
50430;BME280;36359;41.556;-8.418;2022-10-12T04:02:52;100477.19;;;17.34;92.62
50430;BME280;36359;41.556;-8.418;2022-10-12T04:05:18;100483.06;;;17.31;92.87
50430;BME280;36359;41.556;-8.418;2022-10-12T04:07:44;100484.75;;;17.32;93.42
50430;BME280;36359;41.556;-8.418;2022-10-12T04:10:09;100484.06;;;17.60;94.41
50430;BME280;36359;41.556;-8.418;2022-10-12T04:12:35;100485.38;;;17.64;91.72
50430;BME280;36359;41.556;-8.418;2022-10-12T04:15:01;100485.84;;;17.53;92.30
50430;BME280;36359;41.556;-8.418;2022-10-12T04:17:26;100491.53;;;17.66;92.63
50430;BME280;36359;41.556;-8.418;2022-10-12T04:19:52;100489.56;;;17.60;92.33
50430;BME280;36359;41.556;-8.418;2022-10-12T04:22:18;100498.38;;;17.40;93.00
50430;BME280;36359;41.556;-8.418;2022-10-12T04:24:44;100497.22;;;17.49;92.89
50430;BME280;36359;41.556;-8.418;2022-10-12T04:27:09;100501.84;;;17.49;93.49
50430;BME280;36359;41.556;-8.418;2022-10-12T04:29:35;100500.25;;;17.55;93.43
50430;BME280;36359;41.556;-8.418;2022-10-12T04:32:01;100498.81;;;17.59;94.10
50430;BME280;36359;41.556;-8.418;2022-10-12T04:34:27;100499.41;;;17.39;92.80
50430;BME280;36359;41.556;-8.418;2022-10-12T04:36:53;100505.19;;;17.30;93.72
50430;BME280;36359;41.556;-8.418;2022-10-12T04:39:19;100507.06;;;17.14;93.49
50430;BME280;36359;41.556;-8.418;2022-10-12T04:41:44;100514.53;;;17.06;94.05
50430;BME280;36359;41.556;-8.418;2022-10-12T04:44:10;100508.59;;;17.17;93.35
50430;BME280;36359;41.556;-8.418;2022-10-12T04:46:36;100509.44;;;17.17;92.91
50430;BME280;36359;41.556;-8.418;2022-10-12T04:49:01;100505.75;;;16.95;93.89
50430;BME280;36359;41.556;-8.418;2022-10-12T04:51:27;100507.72;;;16.87;96.74
50430;BME280;36359;41.556;-8.418;2022-10-12T04:53:53;100512.75;;;16.75;96.25
50430;BME280;36359;41.556;-8.418;2022-10-12T04:56:18;100517.91;;;16.78;96.43
50430;BME280;36359;41.556;-8.418;2022-10-12T04:58:44;100517.09;;;16.69;97.88
50430;BME280;36359;41.556;-8.418;2022-10-12T05:01:10;100511.56;;;16.77;97.68
50430;BME280;36359;41.556;-8.418;2022-10-12T05:03:36;100509.00;;;16.76;97.40
50430;BME280;36359;41.556;-8.418;2022-10-12T05:06:02;100506.13;;;17.07;99.90
50430;BME280;36359;41.556;-8.418;2022-10-12T05:08:27;100495.94;;;17.16;96.33
50430;BME280;36359;41.556;-8.418;2022-10-12T05:10:53;100496.00;;;17.08;95.64
50430;BME280;36359;41.556;-8.418;2022-10-12T05:13:22;100501.31;;;16.94;95.60
50430;BME280;36359;41.556;-8.418;2022-10-12T05:15:48;100509.25;;;16.43;98.85
50430;BME280;36359;41.556;-8.418;2022-10-12T05:18:14;100519.97;;;16.53;98.49
50430;BME280;36359;41.556;-8.418;2022-10-12T05:20:39;100517.47;;;16.43;99.43
50430;BME280;36359;41.556;-8.418;2022-10-12T05:23:05;100525.00;;;16.41;99.54
50430;BME280;36359;41.556;-8.418;2022-10-12T05:25:31;100524.91;;;16.57;98.94
50430;BME280;36359;41.556;-8.418;2022-10-12T05:27:57;100529.31;;;16.58;99.68
50430;BME280;36359;41.556;-8.418;2022-10-12T05:30:23;100533.31;;;16.56;99.31
50430;BME280;36359;41.556;-8.418;2022-10-12T05:32:49;100522.94;;;16.66;99.03
50430;BME280;36359;41.556;-8.418;2022-10-12T05:35:14;100525.00;;;16.87;97.75
50430;BME280;36359;41.556;-8.418;2022-10-12T05:37:40;100520.63;;;16.78;96.88
50430;BME280;36359;41.556;-8.418;2022-10-12T05:40:06;100530.31;;;16.89;96.43
50430;BME280;36359;41.556;-8.418;2022-10-12T05:42:32;100520.25;;;16.81;95.99
50430;BME280;36359;41.556;-8.418;2022-10-12T05:44:59;100522.69;;;16.76;95.69
50430;BME280;36359;41.556;-8.418;2022-10-12T05:47:25;100519.25;;;16.97;97.28
50430;BME280;36359;41.556;-8.418;2022-10-12T05:49:51;100515.66;;;16.96;94.71
50430;BME280;36359;41.556;-8.418;2022-10-12T05:52:16;100509.03;;;16.91;93.91
50430;BME280;36359;41.556;-8.418;2022-10-12T05:54:42;100511.28;;;16.87;93.19
50430;BME280;36359;41.556;-8.418;2022-10-12T05:57:08;100507.63;;;16.80;92.48
50430;BME280;36359;41.556;-8.418;2022-10-12T05:59:34;100516.03;;;16.70;92.06
50430;BME280;36359;41.556;-8.418;2022-10-12T06:01:59;100521.31;;;16.80;91.69
50430;BME280;36359;41.556;-8.418;2022-10-12T06:04:25;100520.97;;;16.98;94.75
50430;BME280;36359;41.556;-8.418;2022-10-12T06:06:51;100519.38;;;17.03;92.00
50430;BME280;36359;41.556;-8.418;2022-10-12T06:09:17;100521.13;;;16.82;91.80
50430;BME280;36359;41.556;-8.418;2022-10-12T06:11:42;100524.75;;;16.74;92.43
50430;BME280;36359;41.556;-8.418;2022-10-12T06:14:08;100531.91;;;16.60;92.62
50430;BME280;36359;41.556;-8.418;2022-10-12T06:16:34;100522.47;;;16.17;95.28
50430;BME280;36359;41.556;-8.418;2022-10-12T06:18:59;100528.31;;;16.13;97.72
50430;BME280;36359;41.556;-8.418;2022-10-12T06:21:25;100532.56;;;16.16;98.55
50430;BME280;36359;41.556;-8.418;2022-10-12T06:26:23;100535.72;;;16.05;100.00
50430;BME280;36359;41.556;-8.418;2022-10-12T06:28:49;100539.00;;;16.00;100.00
50430;BME280;36359;41.556;-8.418;2022-10-12T06:31:15;100527.06;;;15.93;100.00
50430;BME280;36359;41.556;-8.418;2022-10-12T06:33:40;100531.16;;;15.97;100.00
50430;BME280;36359;41.556;-8.418;2022-10-12T06:36:06;100535.22;;;16.01;100.00
50430;BME280;36359;41.556;-8.418;2022-10-12T06:38:32;100546.41;;;16.15;100.00
50430;BME280;36359;41.556;-8.418;2022-10-12T06:40:57;100547.31;;;16.15;100.00
50430;BME280;36359;41.556;-8.418;2022-10-12T06:43:23;100546.34;;;16.54;100.00
50430;BME280;36359;41.556;-8.418;2022-10-12T06:45:49;100542.84;;;16.60;99.48
50430;BME280;36359;41.556;-8.418;2022-10-12T06:48:15;100542.28;;;16.65;97.68
50430;BME280;36359;41.556;-8.418;2022-10-12T06:50:41;100556.13;;;16.71;96.61
50430;BME280;36359;41.556;-8.418;2022-10-12T06:53:06;100565.53;;;16.77;97.52
50430;BME280;36359;41.556;-8.418;2022-10-12T06:55:32;100570.19;;;16.91;96.99
50430;BME280;36359;41.556;-8.418;2022-10-12T06:57:58;100567.78;;;16.88;95.84
50430;BME280;36359;41.556;-8.418;2022-10-12T07:00:24;100574.69;;;16.84;94.60
50430;BME280;36359;41.556;-8.418;2022-10-12T07:02:50;100578.25;;;16.16;97.73
50430;BME280;36359;41.556;-8.418;2022-10-12T07:05:18;100586.88;;;16.35;96.56
50430;BME280;36359;41.556;-8.418;2022-10-12T07:07:45;100591.84;;;17.54;99.18
50430;BME280;36359;41.556;-8.418;2022-10-12T07:10:11;100590.03;;;18.42;93.36
50430;BME280;36359;41.556;-8.418;2022-10-12T07:12:37;100595.00;;;18.96;89.45
50430;BME280;36359;41.556;-8.418;2022-10-12T07:15:05;100604.28;;;19.16;87.32
50430;BME280;36359;41.556;-8.418;2022-10-12T07:17:31;100603.19;;;19.39;85.30
50430;BME280;36359;41.556;-8.418;2022-10-12T07:19:58;100600.94;;;19.56;82.01
50430;BME280;36359;41.556;-8.418;2022-10-12T07:22:25;100609.25;;;19.62;80.02
50430;BME280;36359;41.556;-8.418;2022-10-12T07:24:52;100612.63;;;19.64;79.47
50430;BME280;36359;41.556;-8.418;2022-10-12T07:27:19;100619.91;;;19.65;78.47
50430;BME280;36359;41.556;-8.418;2022-10-12T07:29:44;100615.38;;;19.64;77.79
50430;BME280;36359;41.556;-8.418;2022-10-12T07:32:11;100612.00;;;19.62;77.41
50430;BME280;36359;41.556;-8.418;2022-10-12T07:34:37;100606.69;;;19.61;77.78
50430;BME280;36359;41.556;-8.418;2022-10-12T07:37:03;100614.00;;;19.75;77.39
50430;BME280;36359;41.556;-8.418;2022-10-12T07:39:29;100619.94;;;19.72;77.33
50430;BME280;36359;41.556;-8.418;2022-10-12T07:41:55;100619.28;;;19.42;77.74
50430;BME280;36359;41.556;-8.418;2022-10-12T07:44:21;100614.31;;;19.02;79.64
50430;BME280;36359;41.556;-8.418;2022-10-12T07:46:47;100617.63;;;18.55;82.56
50430;BME280;36359;41.556;-8.418;2022-10-12T07:49:14;100626.91;;;18.17;84.34
50430;BME280;36359;41.556;-8.418;2022-10-12T07:51:40;100623.25;;;17.96;85.78
50430;BME280;36359;41.556;-8.418;2022-10-12T07:54:07;100625.63;;;17.84;87.08
50430;BME280;36359;41.556;-8.418;2022-10-12T07:56:33;100619.06;;;17.70;88.59
50430;BME280;36359;41.556;-8.418;2022-10-12T07:58:59;100631.00;;;17.47;91.14
50430;BME280;36359;41.556;-8.418;2022-10-12T08:01:27;100632.19;;;17.30;92.53
50430;BME280;36359;41.556;-8.418;2022-10-12T08:03:54;100645.16;;;17.36;92.39
50430;BME280;36359;41.556;-8.418;2022-10-12T08:06:22;100638.44;;;17.39;92.50
50430;BME280;36359;41.556;-8.418;2022-10-12T08:08:48;100642.84;;;17.25;93.93
50430;BME280;36359;41.556;-8.418;2022-10-12T08:11:17;100646.00;;;17.37;92.60
50430;BME280;36359;41.556;-8.418;2022-10-12T08:13:44;100657.75;;;17.45;93.40
50430;BME280;36359;41.556;-8.418;2022-10-12T08:16:18;100650.22;;;17.62;92.59
50430;BME280;36359;41.556;-8.418;2022-10-12T08:18:44;100661.50;;;18.12;90.65
50430;BME280;36359;41.556;-8.418;2022-10-12T08:21:12;100662.81;;;18.01;90.53
50430;BME280;36359;41.556;-8.418;2022-10-12T08:23:38;100671.44;;;17.98;90.91
50430;BME280;36359;41.556;-8.418;2022-10-12T08:26:06;100673.47;;;18.26;89.39
50430;BME280;36359;41.556;-8.418;2022-10-12T08:28:33;100670.28;;;18.73;86.91
50430;BME280;36359;41.556;-8.418;2022-10-12T08:30:59;100663.25;;;18.71;nan
50430;BME280;36359;41.556;-8.418;2022-10-12T08:33:27;100671.50;;;18.56;87.20
50430;BME280;36359;41.556;-8.418;2022-10-12T08:35:53;100680.03;;;18.25;88.64
50430;BME280;36359;41.556;-8.418;2022-10-12T08:38:19;100671.34;;;18.57;87.04
50430;BME280;36359;41.556;-8.418;2022-10-12T08:44:03;100681.75;;;18.62;87.36
50430;BME280;36359;41.556;-8.418;2022-10-12T08:46:34;100676.25;;;18.77;87.15
50430;BME280;36359;41.556;-8.418;2022-10-12T08:49:38;100684.75;;;18.82;86.51
50430;BME280;36359;41.556;-8.418;2022-10-12T08:52:02;100686.66;;;19.24;84.55
50430;BME280;36359;41.556;-8.418;2022-10-12T08:54:39;100687.22;;;19.20;85.44
50430;BME280;36359;41.556;-8.418;2022-10-12T08:57:20;100701.69;;;19.28;84.14
50430;BME280;36359;41.556;-8.418;2022-10-12T08:59:46;100701.50;;;19.09;85.54
50430;BME280;36359;41.556;-8.418;2022-10-12T09:05:35;100705.78;;;19.11;86.46
50430;BME280;36359;41.556;-8.418;2022-10-12T09:08:13;100698.13;;;19.56;83.66
50430;BME280;36359;41.556;-8.418;2022-10-12T09:10:52;100705.34;;;19.85;82.00
50430;BME280;36359;41.556;-8.418;2022-10-12T09:16:05;100702.31;;;20.08;83.61
50430;BME280;36359;41.556;-8.418;2022-10-12T09:18:41;100706.91;;;19.94;85.67
50430;BME280;36359;41.556;-8.418;2022-10-12T09:21:15;100703.47;;;19.86;85.70
50430;BME280;36359;41.556;-8.418;2022-10-12T09:23:42;100701.56;;;19.86;85.63
50430;BME280;36359;41.556;-8.418;2022-10-12T09:26:16;100700.53;;;19.94;83.34
50430;BME280;36359;41.556;-8.418;2022-10-12T09:28:54;100702.13;;;19.75;86.07
50430;BME280;36359;41.556;-8.418;2022-10-12T09:34:04;100706.38;;;19.78;85.95
50430;BME280;36359;41.556;-8.418;2022-10-12T09:36:34;100714.06;;;19.89;85.37
50430;BME280;36359;41.556;-8.418;2022-10-12T09:39:03;100714.81;;;20.04;79.80
50430;BME280;36359;41.556;-8.418;2022-10-12T09:41:38;100719.19;;;19.92;81.85
50430;BME280;36359;41.556;-8.418;2022-10-12T09:44:05;100720.72;;;19.73;80.15
50430;BME280;36359;41.556;-8.418;2022-10-12T09:46:55;100712.25;;;19.68;82.13
50430;BME280;36359;41.556;-8.418;2022-10-12T09:49:21;100708.88;;;19.72;84.10
50430;BME280;36359;41.556;-8.418;2022-10-12T09:51:58;100715.28;;;19.80;82.71
50430;BME280;36359;41.556;-8.418;2022-10-12T09:54:26;100705.00;;;19.67;83.63
50430;BME280;36359;41.556;-8.418;2022-10-12T09:56:52;100709.00;;;19.92;82.62
50430;BME280;36359;41.556;-8.418;2022-10-12T09:59:27;100711.41;;;20.02;81.75
50430;BME280;36359;41.556;-8.418;2022-10-12T10:04:40;100713.56;;;20.48;78.88
50430;BME280;36359;41.556;-8.418;2022-10-12T10:07:31;100708.09;;;20.55;83.30
50430;BME280;36359;41.556;-8.418;2022-10-12T10:12:46;100723.59;;;20.62;79.53
50430;BME280;36359;41.556;-8.418;2022-10-12T10:18:01;100726.63;;;20.81;81.65
50430;BME280;36359;41.556;-8.418;2022-10-12T10:20:31;100728.16;;;20.97;78.28
50430;BME280;36359;41.556;-8.418;2022-10-12T10:22:59;100732.81;;;20.90;77.87
50430;BME280;36359;41.556;-8.418;2022-10-12T10:28:20;100732.63;;;21.04;78.84
50430;BME280;36359;41.556;-8.418;2022-10-12T10:31:01;100721.41;;;21.26;76.98
50430;BME280;36359;41.556;-8.418;2022-10-12T10:33:35;100730.72;;;21.12;79.85
50430;BME280;36359;41.556;-8.418;2022-10-12T10:36:04;100710.78;;;21.09;77.18
50430;BME280;36359;41.556;-8.418;2022-10-12T10:38:57;100701.91;;;21.27;79.83
50430;BME280;36359;41.556;-8.418;2022-10-12T10:41:35;100696.56;;;21.26;77.00
50430;BME280;36359;41.556;-8.418;2022-10-12T10:44:01;100704.00;;;21.32;76.38
50430;BME280;36359;41.556;-8.418;2022-10-12T10:46:30;100709.81;;;21.50;77.27
50430;BME280;36359;41.556;-8.418;2022-10-12T10:48:59;100706.16;;;21.70;78.78
50430;BME280;36359;41.556;-8.418;2022-10-12T10:51:47;100708.09;;;21.69;75.99
50430;BME280;36359;41.556;-8.418;2022-10-12T10:57:12;100707.03;;;21.77;77.37
50430;BME280;36359;41.556;-8.418;2022-10-12T10:59:45;100702.34;;;21.71;75.43
50430;BME280;36359;41.556;-8.418;2022-10-12T11:04:49;100701.25;;;21.85;73.47
50430;BME280;36359;41.556;-8.418;2022-10-12T11:07:25;100699.56;;;21.84;72.58
50430;BME280;36359;41.556;-8.418;2022-10-12T11:09:56;100696.75;;;22.04;72.99
50430;BME280;36359;41.556;-8.418;2022-10-12T11:12:29;100697.63;;;21.98;73.03
50430;BME280;36359;41.556;-8.418;2022-10-12T11:15:06;100694.75;;;22.38;69.00
50430;BME280;36359;41.556;-8.418;2022-10-12T11:17:46;100692.53;;;22.02;71.64
50430;BME280;36359;41.556;-8.418;2022-10-12T11:20:24;100699.72;;;22.22;71.00
50430;BME280;36359;41.556;-8.418;2022-10-12T11:22:56;100699.88;;;22.34;71.60
50430;BME280;36359;41.556;-8.418;2022-10-12T11:25:29;100695.31;;;22.60;68.95
50430;BME280;36359;41.556;-8.418;2022-10-12T11:27:58;100701.34;;;22.43;68.72
50430;BME280;36359;41.556;-8.418;2022-10-12T11:30:25;100698.38;;;22.45;69.93
50430;BME280;36359;41.556;-8.418;2022-10-12T11:33:02;100700.00;;;22.59;69.30
50430;BME280;36359;41.556;-8.418;2022-10-12T11:35:39;100698.72;;;22.55;71.17
50430;BME280;36359;41.556;-8.418;2022-10-12T11:40:45;100695.69;;;22.70;70.45
50430;BME280;36359;41.556;-8.418;2022-10-12T11:43:20;100689.25;;;22.76;69.72
50430;BME280;36359;41.556;-8.418;2022-10-12T11:45:49;100696.53;;;22.71;70.71
50430;BME280;36359;41.556;-8.418;2022-10-12T11:48:41;100691.25;;;23.07;70.49
50430;BME280;36359;41.556;-8.418;2022-10-12T11:51:11;100693.75;;;23.16;70.09
50430;BME280;36359;41.556;-8.418;2022-10-12T11:53:50;100696.13;;;23.05;69.80
50430;BME280;36359;41.556;-8.418;2022-10-12T11:56:25;100692.53;;;23.05;69.53
50430;BME280;36359;41.556;-8.418;2022-10-12T12:02:15;100679.38;;;23.00;70.53
50430;BME280;36359;41.556;-8.418;2022-10-12T12:04:45;100685.78;;;22.87;70.65
50430;BME280;36359;41.556;-8.418;2022-10-12T12:07:37;100678.38;;;23.20;69.02
50430;BME280;36359;41.556;-8.418;2022-10-12T12:18:20;100670.19;;;23.31;69.48
50430;BME280;36359;41.556;-8.418;2022-10-12T12:23:50;100665.97;;;23.54;68.17
50430;BME280;36359;41.556;-8.418;2022-10-12T12:28:43;100649.44;;;23.41;68.19
50430;BME280;36359;41.556;-8.418;2022-10-12T12:31:16;100638.34;;;23.66;67.57
50430;BME280;36359;41.556;-8.418;2022-10-12T12:34:02;100638.94;;;23.68;67.92
50430;BME280;36359;41.556;-8.418;2022-10-12T12:36:35;100635.25;;;23.80;67.76
50430;BME280;36359;41.556;-8.418;2022-10-12T12:39:04;100633.53;;;23.79;67.84
50430;BME280;36359;41.556;-8.418;2022-10-12T12:52:03;100624.56;;;23.84;67.70
50430;BME280;36359;41.556;-8.418;2022-10-12T12:54:35;100627.72;;;24.06;66.34
50430;BME280;36359;41.556;-8.418;2022-10-12T13:19:20;100602.03;;;24.47;65.15
50430;BME280;36359;41.556;-8.418;2022-10-12T13:21:50;100609.53;;;24.59;65.56
50430;BME280;36359;41.556;-8.418;2022-10-12T13:24:20;100602.75;;;24.24;63.95
50430;BME280;36359;41.556;-8.418;2022-10-12T13:26:47;100600.72;;;24.32;61.44
50430;BME280;36359;41.556;-8.418;2022-10-12T13:29:27;100594.50;;;24.36;63.30
50430;BME280;36359;41.556;-8.418;2022-10-12T13:31:59;100597.72;;;24.52;64.99
50430;BME280;36359;41.556;-8.418;2022-10-12T13:34:51;100595.56;;;24.54;63.09
50430;BME280;36359;41.556;-8.418;2022-10-12T13:37:16;100599.97;;;24.43;61.96
50430;BME280;36359;41.556;-8.418;2022-10-12T13:39:44;100593.75;;;24.41;62.70
50430;BME280;36359;41.556;-8.418;2022-10-12T13:42:25;100588.00;;;24.73;62.81
50430;BME280;36359;41.556;-8.418;2022-10-12T13:44:51;100584.75;;;24.76;63.36
50430;BME280;36359;41.556;-8.418;2022-10-12T13:47:29;100585.09;;;24.67;62.11
50430;BME280;36359;41.556;-8.418;2022-10-12T13:49:56;100580.78;;;24.72;61.44
50430;BME280;36359;41.556;-8.418;2022-10-12T13:52:30;100579.66;;;24.61;61.76
50430;BME280;36359;41.556;-8.418;2022-10-12T13:54:57;100579.94;;;24.71;61.97
50430;BME280;36359;41.556;-8.418;2022-10-12T14:00:08;100571.22;;;24.67;62.39
50430;BME280;36359;41.556;-8.418;2022-10-12T14:02:34;100571.72;;;24.76;62.00
50430;BME280;36359;41.556;-8.418;2022-10-12T14:05:02;100570.19;;;24.92;61.15
50430;BME280;36359;41.556;-8.418;2022-10-12T14:07:35;100572.13;;;24.80;60.43
50430;BME280;36359;41.556;-8.418;2022-10-12T14:10:11;100569.09;;;24.81;60.55
50430;BME280;36359;41.556;-8.418;2022-10-12T14:12:47;100576.09;;;24.84;59.83
50430;BME280;36359;41.556;-8.418;2022-10-12T14:15:14;100574.47;;;24.64;60.60
50430;BME280;36359;41.556;-8.418;2022-10-12T14:17:44;100562.34;;;24.77;61.15
50430;BME280;36359;41.556;-8.418;2022-10-12T14:20:26;100565.19;;;24.70;60.91
50430;BME280;36359;41.556;-8.418;2022-10-12T14:22:52;100577.50;;;24.63;61.96
50430;BME280;36359;41.556;-8.418;2022-10-12T14:25:27;100566.03;;;24.59;61.48
50430;BME280;36359;41.556;-8.418;2022-10-12T14:28:04;100577.50;;;24.63;60.80
50430;BME280;36359;41.556;-8.418;2022-10-12T14:30:36;100577.13;;;24.59;61.93
50430;BME280;36359;41.556;-8.418;2022-10-12T14:33:21;100578.59;;;24.74;58.50
50430;BME280;36359;41.556;-8.418;2022-10-12T14:35:48;100574.59;;;24.69;58.94
50430;BME280;36359;41.556;-8.418;2022-10-12T14:38:41;100560.72;;;24.69;57.03
50430;BME280;36359;41.556;-8.418;2022-10-12T14:44:15;100563.19;;;24.78;57.77
50430;BME280;36359;41.556;-8.418;2022-10-12T14:46:44;100562.63;;;24.57;56.77
50430;BME280;36359;41.556;-8.418;2022-10-12T14:49:18;100558.78;;;24.58;59.71
50430;BME280;36359;41.556;-8.418;2022-10-12T14:51:46;100551.69;;;24.62;60.12
50430;BME280;36359;41.556;-8.418;2022-10-12T14:54:12;100558.44;;;24.66;60.33